Atka, Alaska
Current Conditions -  °F | °C
As of 12:36 AM on Thursday 23 Oct 2014 (Local Time) from PAAK Reporting Station
Overcast Overcast  
Wind Chill: 40°   Ceiling: 2700
Heat Index: 45°   Visibility: 10mi
Dew Point: 39°   Wind: 9mph
Humidity: 81%   Direction: 290°WNW
Pressure: 30.2"   Gusts: NA
Location:  52.19°N, 174.2°W
Report Text: PAAK 230936Z 29008KT 10SM OVC027 07/04 A3020 RMK AO1
Loading
Personal Weather Stations






























Interactive Weather Map
Tropical Storm Tracking
New forecast layout! Learn more

10-Day Weather Forecast

Advertisements
Track Severe Weather on mobile